Debbie Lou — WDH8211 — position and weather

sailwx.info

Track history (hours):
 
Tides and Currents Weather Stations Pressure Air Temp Water Temp Dewpoint Dewpoint Depression Visibility Wind Speed Wind Dir Waves Ship Positions

Debbie Lou

Owner: Atwater Marine, St Petersburg, FL. More information available from US FCC via Universal Licensing System and Coast Guard Vessel Documentation Center.

Last reported at 2018-Feb-21 22:14 UTC. Time now 2018-Feb-23 05:03 UTC.
Position N 27°48' W 082°28'.

Length 32 m; draft 2 m.

Type: Pleasure craft. MMSI: 367655770.

Date/timePositionNaut miles runAvg speedWind from/ knotsBaromVisibWave heightAir tempDewpointWater temp
2018-Feb-21 22:14N 27°48' W 082°28'310.1
2018-Feb-21 21:58N 27°50' W 082°27'510.4
2018-Feb-21 21:30N 27°55' W 082°27'1 2.5
2018-Feb-21 21:00N 27°54' W 082°26'510.7
2018-Feb-21 20:30N 27°49' W 082°27'510.4
2018-Feb-21 20:00N 27°47' W 082°33'5 0.1
2018-Feb-19 22:31N 27°47' W 082°38'0 0.0
2018-Feb-19 22:25N 27°47' W 082°38'0 0.0
2018-Feb-19 18:19N 27°47' W 082°38'0 0.0
2018-Feb-18 15:01N 27°47' W 082°38'0 0.0
2018-Feb-18 14:57N 27°47' W 082°38'0 0.0
2018-Feb-18 13:54N 27°47' W 082°38'0 0.0
2018-Feb-18 13:30N 27°47' W 082°38'0 0.0
2018-Feb-18 13:00N 27°47' W 082°38'0 0.0
2018-Feb-18 12:30N 27°47' W 082°38'0 0.0
2018-Feb-18 12:00N 27°47' W 082°38'0 0.0
2018-Feb-18 11:24N 27°47' W 082°38'0 0.0
2018-Feb-18 10:46N 27°47' W 082°38'0 0.0
2018-Feb-18 10:29N 27°47' W 082°38'0 0.0
2018-Feb-18 10:00N 27°47' W 082°38'0 0.0
2018-Feb-18 09:27N 27°47' W 082°38'0 0.0
2018-Feb-18 08:51N 27°47' W 082°38'0 0.0
2018-Feb-18 08:30N 27°47' W 082°38'0 0.0
2018-Feb-18 08:00N 27°47' W 082°38'0 0.0
2018-Feb-18 07:29N 27°47' W 082°38'0 0.0
2018-Feb-18 06:58N 27°47' W 082°38'0 0.0
2018-Feb-18 06:28N 27°47' W 082°38'0 0.0
2018-Feb-18 05:55N 27°47' W 082°38'0 0.0
2018-Feb-18 05:30N 27°47' W 082°38'0 0.0
2018-Feb-18 04:57N 27°47' W 082°38'0 0.0
2018-Feb-18 04:30N 27°47' W 082°38'0 0.0
2018-Feb-18 04:00N 27°47' W 082°38'0 0.0
2018-Feb-18 03:30N 27°47' W 082°38'0 0.0
2018-Feb-18 02:58N 27°47' W 082°38'0 0.0
2018-Feb-18 02:28N 27°47' W 082°38'0 0.0
2018-Feb-18 02:00N 27°47' W 082°38'0 0.0
2018-Feb-18 00:55N 27°47' W 082°38'0 0.0
2018-Feb-18 00:30N 27°47' W 082°38'0 0.0
2018-Feb-18 00:00N 27°47' W 082°38'1 1.1
2018-Feb-17 22:41N 27°46' W 082°37'1 0.1
2018-Feb-17 11:43N 27°47' W 082°38'0 0.0
2018-Feb-17 10:19N 27°47' W 082°38'0 0.0
2018-Feb-17 09:49N 27°47' W 082°38'0 0.0
2018-Feb-17 09:25N 27°47' W 082°38'0 0.0
2018-Feb-17 08:43N 27°47' W 082°38'0 0.0
2018-Feb-17 08:19N 27°47' W 082°38'0 0.0
2018-Feb-17 07:55N 27°47' W 082°38'0 0.0
2018-Feb-17 06:43N 27°47' W 082°38'  
2018-Feb-14 01:04N 27°47' W 082°38'0 0.0
2018-Feb-14 00:58N 27°47' W 082°38'0 0.0
2018-Feb-14 00:22N 27°47' W 082°38'0 0.0
2018-Feb-12 03:22N 27°47' W 082°38'0 0.0
2018-Feb-11 23:22N 27°47' W 082°38'0 0.0
2018-Feb-11 22:58N 27°47' W 082°38'  
Track history (hours):
 
Tides and Currents Weather Stations Pressure Air Temp Water Temp Dewpoint Dewpoint Depression Visibility Wind Speed Wind Dir Waves Ship Positions

Debbie Lou

Owner: Atwater Marine, St Petersburg, FL. More information available from US FCC via Universal Licensing System and Coast Guard Vessel Documentation Center.

Last reported at 2018-Feb-21 22:14 UTC. Time now 2018-Feb-23 05:03 UTC.
Position N 27°48' W 082°28'.

Length 32 m; draft 2 m.

Type: Pleasure craft. MMSI: 367655770.

Date/timePositionNaut miles runAvg speedWind from/ knotsBaromVisibWave heightAir tempDewpointWater temp
2018-Feb-21 22:14N 27°48' W 082°28'310.1
2018-Feb-21 21:58N 27°50' W 082°27'510.4
2018-Feb-21 21:30N 27°55' W 082°27'1 2.5
2018-Feb-21 21:00N 27°54' W 082°26'510.7
2018-Feb-21 20:30N 27°49' W 082°27'510.4
2018-Feb-21 20:00N 27°47' W 082°33'5 0.1
2018-Feb-19 22:31N 27°47' W 082°38'0 0.0
2018-Feb-19 22:25N 27°47' W 082°38'0 0.0
2018-Feb-19 18:19N 27°47' W 082°38'0 0.0
2018-Feb-18 15:01N 27°47' W 082°38'0 0.0
2018-Feb-18 14:57N 27°47' W 082°38'0 0.0
2018-Feb-18 13:54N 27°47' W 082°38'0 0.0
2018-Feb-18 13:30N 27°47' W 082°38'0 0.0
2018-Feb-18 13:00N 27°47' W 082°38'0 0.0
2018-Feb-18 12:30N 27°47' W 082°38'0 0.0
2018-Feb-18 12:00N 27°47' W 082°38'0 0.0
2018-Feb-18 11:24N 27°47' W 082°38'0 0.0
2018-Feb-18 10:46N 27°47' W 082°38'0 0.0
2018-Feb-18 10:29N 27°47' W 082°38'0 0.0
2018-Feb-18 10:00N 27°47' W 082°38'0 0.0
2018-Feb-18 09:27N 27°47' W 082°38'0 0.0
2018-Feb-18 08:51N 27°47' W 082°38'0 0.0
2018-Feb-18 08:30N 27°47' W 082°38'0 0.0
2018-Feb-18 08:00N 27°47' W 082°38'0 0.0
2018-Feb-18 07:29N 27°47' W 082°38'0 0.0
2018-Feb-18 06:58N 27°47' W 082°38'0 0.0
2018-Feb-18 06:28N 27°47' W 082°38'0 0.0
2018-Feb-18 05:55N 27°47' W 082°38'0 0.0
2018-Feb-18 05:30N 27°47' W 082°38'0 0.0
2018-Feb-18 04:57N 27°47' W 082°38'0 0.0
2018-Feb-18 04:30N 27°47' W 082°38'0 0.0
2018-Feb-18 04:00N 27°47' W 082°38'0 0.0
2018-Feb-18 03:30N 27°47' W 082°38'0 0.0
2018-Feb-18 02:58N 27°47' W 082°38'0 0.0
2018-Feb-18 02:28N 27°47' W 082°38'0 0.0
2018-Feb-18 02:00N 27°47' W 082°38'0 0.0
2018-Feb-18 00:55N 27°47' W 082°38'0 0.0
2018-Feb-18 00:30N 27°47' W 082°38'0 0.0
2018-Feb-18 00:00N 27°47' W 082°38'1 1.1
2018-Feb-17 22:41N 27°46' W 082°37'1 0.1
2018-Feb-17 11:43N 27°47' W 082°38'0 0.0
2018-Feb-17 10:19N 27°47' W 082°38'0 0.0
2018-Feb-17 09:49N 27°47' W 082°38'0 0.0
2018-Feb-17 09:25N 27°47' W 082°38'0 0.0
2018-Feb-17 08:43N 27°47' W 082°38'0 0.0
2018-Feb-17 08:19N 27°47' W 082°38'0 0.0
2018-Feb-17 07:55N 27°47' W 082°38'0 0.0
2018-Feb-17 06:43N 27°47' W 082°38'  
2018-Feb-14 01:04N 27°47' W 082°38'0 0.0
2018-Feb-14 00:58N 27°47' W 082°38'0 0.0
2018-Feb-14 00:22N 27°47' W 082°38'0 0.0
2018-Feb-12 03:22N 27°47' W 082°38'0 0.0
2018-Feb-11 23:22N 27°47' W 082°38'0 0.0
2018-Feb-11 22:58N 27°47' W 082°38'  

Dump ship's entire track history